Time;durP1;ratioP1;P1;durP2;ratioP2;P2;SDS_P1;SDS_P2;PMS_P1;PMS_P2;Temp;Humidity;BMP_temperature;BMP_pressure;BME280_temperature;BME280_humidity;BME280_pressure;Samples;Min_cycle;Max_cycle;Signal;HPM_P1;HPM_P2
2022/12/18 00:02:07;;;;;;;25.77;13.97;;;-7.10;99.90;;;;;;5034100;28;20226;-76
2022/12/18 00:04:34;;;;;;;22.70;13.70;;;-7.10;99.90;;;;;;5027609;28;20333;-76
2022/12/18 00:07:01;;;;;;;20.50;13.73;;;-7.10;99.90;;;;;;5030471;28;20216;-77
2022/12/18 00:09:29;;;;;;;24.07;14.23;;;-7.10;99.90;;;;;;5035861;28;21175;-76
2022/12/18 00:11:55;;;;;;;18.97;12.57;;;-7.10;99.90;;;;;;5025772;28;20261;-76
2022/12/18 00:14:23;;;;;;;24.77;13.73;;;-7.20;99.90;;;;;;5015739;28;20309;-76
2022/12/18 00:16:50;;;;;;;25.37;13.43;;;-7.20;99.90;;;;;;5036541;28;20239;-76
2022/12/18 00:19:18;;;;;;;45.27;15.33;;;-7.20;99.90;;;;;;5030689;28;20241;-76
2022/12/18 00:21:45;;;;;;;98.93;18.77;;;-7.20;99.90;;;;;;5026580;28;20248;-76
2022/12/18 00:24:13;;;;;;;22.47;13.77;;;-7.20;99.90;;;;;;5022505;28;20310;-76
2022/12/18 00:26:40;;;;;;;23.33;12.53;;;-7.20;99.90;;;;;;5034876;28;20285;-76
2022/12/18 00:29:10;;;;;;;21.53;13.20;;;-7.20;99.90;;;;;;5027454;28;20243;-76
2022/12/18 00:31:38;;;;;;;29.10;13.17;;;-7.20;99.90;;;;;;5032116;28;20944;-76
2022/12/18 00:34:05;;;;;;;20.20;13.23;;;-7.20;99.90;;;;;;5014140;28;20236;-76
2022/12/18 00:36:35;;;;;;;20.83;12.23;;;-7.20;99.90;;;;;;5030107;28;20726;-76
2022/12/18 00:39:05;;;;;;;20.23;12.73;;;-7.20;99.90;;;;;;5026590;28;20230;-76
2022/12/18 00:44:18;;;;;;;22.97;12.70;;;-7.10;99.90;;;;;;5022042;28;20265;-76
2022/12/18 00:46:46;;;;;;;21.00;12.77;;;-7.20;99.90;;;;;;5027084;28;20304;-76
2022/12/18 00:49:14;;;;;;;17.93;12.83;;;-7.20;99.90;;;;;;5023642;28;20326;-76
2022/12/18 00:51:42;;;;;;;19.37;12.00;;;-7.20;99.90;;;;;;5025798;28;20230;-75
2022/12/18 00:54:10;;;;;;;21.13;12.67;;;-7.20;99.90;;;;;;5031849;28;20228;-75
2022/12/18 00:56:37;;;;;;;20.73;13.00;;;-7.20;99.90;;;;;;5026859;28;21061;-76
2022/12/18 00:59:05;;;;;;;23.07;12.67;;;-7.30;99.90;;;;;;5030622;28;20236;-76
2022/12/18 01:01:32;;;;;;;25.83;12.80;;;-7.30;99.90;;;;;;5022463;28;20222;-76
2022/12/18 01:04:00;;;;;;;20.40;12.03;;;-7.30;99.90;;;;;;5020696;28;20240;-76
2022/12/18 01:06:26;;;;;;;21.00;12.23;;;-7.30;99.90;;;;;;5023268;28;20232;-76
2022/12/18 01:08:55;;;;;;;22.17;11.53;;;-7.30;99.90;;;;;;5021542;28;20231;-75
2022/12/18 01:11:22;;;;;;;18.27;11.37;;;-7.30;99.90;;;;;;5014679;28;20228;-76
2022/12/18 01:13:49;;;;;;;18.63;10.87;;;-7.30;99.90;;;;;;5018861;28;20247;-75
2022/12/18 01:16:17;;;;;;;19.33;12.10;;;-7.30;99.90;;;;;;5038616;28;20227;-76
2022/12/18 01:18:45;;;;;;;20.67;12.00;;;-7.20;99.90;;;;;;5027600;28;20276;-75
2022/12/18 01:21:14;;;;;;;20.03;10.80;;;-7.20;99.90;;;;;;5036251;28;20235;-76
2022/12/18 01:23:41;;;;;;;19.27;10.97;;;-7.20;99.90;;;;;;5020766;28;20226;-75
2022/12/18 01:26:12;;;;;;;17.40;11.00;;;-7.20;99.90;;;;;;5025811;28;20220;-75
2022/12/18 01:28:39;;;;;;;21.23;11.60;;;-7.20;99.90;;;;;;5029274;28;20311;-75
2022/12/18 01:31:15;;;;;;;24.37;11.60;;;-7.20;99.90;;;;;;5034274;28;20253;-75
2022/12/18 01:33:42;;;;;;;20.50;11.43;;;-7.20;99.90;;;;;;5007005;28;20861;-75
2022/12/18 01:36:14;;;;;;;17.90;11.33;;;-7.20;99.90;;;;;;5021545;28;20236;-75
2022/12/18 01:38:42;;;;;;;21.60;11.40;;;-7.20;99.90;;;;;;5028965;28;20831;-75
2022/12/18 01:41:10;;;;;;;24.43;11.87;;;-7.20;99.90;;;;;;5015114;28;20227;-75
2022/12/18 01:43:49;;;;;;;21.20;11.87;;;-7.20;99.90;;;;;;5021367;28;20251;-75
2022/12/18 01:46:16;;;;;;;18.47;10.90;;;-7.20;99.90;;;;;;5022318;28;20681;-75
2022/12/18 01:48:45;;;;;;;16.77;10.70;;;-7.20;99.90;;;;;;5028784;28;20231;-75
2022/12/18 01:51:13;;;;;;;19.37;10.80;;;-7.20;99.90;;;;;;5023251;28;20309;-75
2022/12/18 01:53:43;;;;;;;20.83;10.63;;;-7.20;99.90;;;;;;5007460;28;20226;-75
2022/12/18 01:56:15;;;;;;;26.43;11.77;;;-7.20;99.90;;;;;;5031336;28;20223;-75
2022/12/18 01:58:49;;;;;;;17.80;10.83;;;-7.20;99.90;;;;;;5013613;28;20641;-75
2022/12/18 02:01:16;;;;;;;19.03;11.57;;;-7.20;99.90;;;;;;5016259;28;20221;-76
2022/12/18 02:03:43;;;;;;;17.07;10.30;;;-7.20;99.90;;;;;;5028953;28;20858;-76
2022/12/18 02:06:16;;;;;;;17.63;10.27;;;-7.30;99.90;;;;;;5013133;28;20294;-76
2022/12/18 02:08:54;;;;;;;16.57;10.53;;;-7.30;99.90;;;;;;5035980;28;20258;-76
2022/12/18 02:11:35;;;;;;;18.40;9.87;;;-7.30;99.90;;;;;;5024314;28;20318;-76
2022/12/18 02:14:09;;;;;;;16.63;9.60;;;-7.30;99.90;;;;;;5019758;28;20220;-76
2022/12/18 02:16:45;;;;;;;17.03;9.77;;;-7.30;99.90;;;;;;5021445;28;20233;-75
2022/12/18 02:19:21;;;;;;;14.07;10.27;;;-7.30;99.90;;;;;;5038197;28;20243;-75
2022/12/18 02:21:55;;;;;;;15.93;10.80;;;-7.40;99.90;;;;;;5022083;28;20213;-75
2022/12/18 02:24:34;;;;;;;19.77;10.50;;;-7.40;99.90;;;;;;5025900;28;20224;-75
2022/12/18 02:27:05;;;;;;;16.27;9.83;;;-7.40;99.90;;;;;;5020781;28;20228;-76
2022/12/18 02:29:36;;;;;;;17.50;10.17;;;-7.40;99.90;;;;;;5019613;28;20243;-75
2022/12/18 02:32:06;;;;;;;17.03;10.03;;;-7.50;99.90;;;;;;5032778;28;20896;-76
2022/12/18 02:34:37;;;;;;;15.27;9.87;;;-7.50;99.90;;;;;;5038384;28;20321;-76
2022/12/18 02:37:09;;;;;;;19.93;9.80;;;-7.40;99.90;;;;;;5033662;28;20800;-76
2022/12/18 02:39:39;;;;;;;18.73;10.27;;;-7.50;99.90;;;;;;5025680;28;20241;-75
2022/12/18 02:42:08;;;;;;;72.70;13.53;;;-7.50;99.90;;;;;;5020630;28;20232;-76
2022/12/18 02:44:36;;;;;;;20.43;9.33;;;-7.50;99.90;;;;;;5049056;28;20246;-76
2022/12/18 02:47:04;;;;;;;16.60;9.73;;;-7.60;99.90;;;;;;5025972;28;20220;-76
2022/12/18 02:49:37;;;;;;;19.07;10.13;;;-7.60;99.90;;;;;;5037830;28;20254;-76
2022/12/18 02:52:13;;;;;;;17.20;9.30;;;-7.60;99.90;;;;;;5024711;28;20236;-76
2022/12/18 02:54:58;;;;;;;19.27;9.93;;;-7.60;99.90;;;;;;5020081;28;20312;-76
2022/12/18 02:57:35;;;;;;;16.30;9.30;;;-7.60;99.90;;;;;;5023106;28;20233;-75
2022/12/18 03:00:07;;;;;;;16.17;9.80;;;-7.60;99.90;;;;;;5033515;28;20238;-75
2022/12/18 03:02:40;;;;;;;68.37;13.87;;;-7.60;99.90;;;;;;5029085;28;20236;-75
2022/12/18 03:05:13;;;;;;;13.93;9.40;;;-7.60;99.90;;;;;;5024488;28;20722;-75
2022/12/18 03:07:47;;;;;;;18.80;9.80;;;-7.60;99.90;;;;;;5020731;28;20841;-75
2022/12/18 03:10:19;;;;;;;14.90;9.50;;;-7.60;99.90;;;;;;5021194;28;20640;-75
2022/12/18 03:12:52;;;;;;;19.13;11.03;;;-7.60;99.90;;;;;;5016525;28;20241;-75
2022/12/18 03:15:27;;;;;;;15.37;9.43;;;-7.60;99.90;;;;;;5037812;28;20653;-75
2022/12/18 03:18:05;;;;;;;20.60;9.63;;;-7.70;99.90;;;;;;5034088;28;20216;-75
2022/12/18 03:20:35;;;;;;;17.00;9.60;;;-7.70;99.90;;;;;;5023306;28;20237;-75
2022/12/18 03:23:08;;;;;;;46.87;11.63;;;-7.70;99.90;;;;;;5013082;28;21184;-75
2022/12/18 03:25:38;;;;;;;16.87;9.70;;;-7.70;99.90;;;;;;5032432;28;20756;-75
2022/12/18 03:28:09;;;;;;;15.37;9.00;;;-7.80;99.90;;;;;;5034225;28;20222;-75
2022/12/18 03:30:38;;;;;;;16.60;9.47;;;-7.80;99.90;;;;;;5015077;28;20805;-75
2022/12/18 03:33:09;;;;;;;19.30;9.97;;;-7.80;99.90;;;;;;5014546;28;20218;-75
2022/12/18 03:35:40;;;;;;;14.97;9.43;;;-7.80;99.90;;;;;;5039645;28;20315;-75
2022/12/18 03:38:08;;;;;;;130.70;18.00;;;-7.80;99.90;;;;;;5025735;28;20224;-75
2022/12/18 03:40:45;;;;;;;21.27;11.30;;;-7.80;99.90;;;;;;5016982;28;20224;-75
2022/12/18 03:43:19;;;;;;;17.73;10.33;;;-7.80;99.90;;;;;;5028398;28;20625;-75
2022/12/18 03:45:53;;;;;;;14.57;9.60;;;-7.80;99.90;;;;;;5015519;28;20227;-75
2022/12/18 03:48:27;;;;;;;17.33;10.53;;;-7.80;99.90;;;;;;5025031;28;20212;-75
2022/12/18 03:50:58;;;;;;;15.67;9.63;;;-7.80;99.90;;;;;;5030630;28;20239;-75
2022/12/18 03:53:35;;;;;;;16.57;10.20;;;-7.80;99.90;;;;;;5034325;28;20912;-76
2022/12/18 03:56:04;;;;;;;18.67;9.87;;;-7.80;99.90;;;;;;5022065;28;20326;-76
2022/12/18 03:58:39;;;;;;;17.80;10.13;;;-7.80;99.90;;;;;;5032645;28;21154;-76
2022/12/18 04:01:17;;;;;;;58.13;13.43;;;-7.80;99.90;;;;;;5037003;28;20225;-76
2022/12/18 04:03:47;;;;;;;14.93;9.80;;;-7.80;99.90;;;;;;5025535;28;20244;-76
2022/12/18 04:06:15;;;;;;;33.87;10.77;;;-7.80;99.90;;;;;;5031163;28;20276;-76
2022/12/18 04:08:44;;;;;;;16.10;9.53;;;-7.80;99.90;;;;;;5038276;28;20296;-75
2022/12/18 04:11:14;;;;;;;20.80;10.20;;;-7.80;99.90;;;;;;5023367;28;20222;-73
2022/12/18 04:13:43;;;;;;;18.60;10.03;;;-7.80;99.90;;;;;;5017703;28;20315;-74
2022/12/18 04:16:17;;;;;;;17.93;10.77;;;-7.80;99.90;;;;;;5021510;28;20250;-74
2022/12/18 04:18:45;;;;;;;18.60;10.23;;;-7.80;99.90;;;;;;5032297;28;20228;-74
2022/12/18 04:21:13;;;;;;;28.93;10.30;;;-7.80;99.90;;;;;;5018892;28;20278;-74
2022/12/18 04:23:40;;;;;;;18.77;10.40;;;-7.80;99.90;;;;;;5019351;28;20251;-73
2022/12/18 04:26:07;;;;;;;16.70;9.97;;;-7.90;99.90;;;;;;5032871;28;20283;-73
2022/12/18 04:28:54;;;;;;;17.73;10.23;;;-7.90;99.90;;;;;;5025420;28;20810;-74
2022/12/18 04:31:21;;;;;;;22.23;10.57;;;-7.90;99.90;;;;;;5030581;28;20241;-74
2022/12/18 04:33:48;;;;;;;18.07;10.57;;;-7.90;99.90;;;;;;5030884;28;20219;-74
2022/12/18 04:36:15;;;;;;;13.80;9.50;;;-7.90;99.90;;;;;;5019806;28;20286;-74
2022/12/18 04:38:42;;;;;;;17.00;10.43;;;-7.90;99.90;;;;;;5014299;28;20227;-74
2022/12/18 04:41:14;;;;;;;18.83;10.20;;;-7.90;99.90;;;;;;5015049;28;20219;-73
2022/12/18 04:43:41;;;;;;;17.07;10.13;;;-8.00;99.90;;;;;;5016548;28;20742;-73
2022/12/18 04:46:10;;;;;;;15.97;10.30;;;-8.00;99.90;;;;;;5017510;28;20256;-74
2022/12/18 04:48:37;;;;;;;55.73;12.87;;;-8.00;99.90;;;;;;5022490;28;20222;-74
2022/12/18 04:51:04;;;;;;;33.73;11.43;;;-8.00;99.90;;;;;;5016248;28;20825;-75
2022/12/18 04:53:31;;;;;;;22.67;10.57;;;-8.10;99.90;;;;;;5013410;28;20223;-75
2022/12/18 04:56:04;;;;;;;15.97;10.20;;;-8.10;99.90;;;;;;5014584;28;20230;-76
2022/12/18 04:58:31;;;;;;;21.17;10.73;;;-8.10;99.90;;;;;;5026422;28;20226;-75
2022/12/18 05:00:58;;;;;;;18.37;10.37;;;-8.10;99.90;;;;;;5034273;28;20225;-75
2022/12/18 05:03:26;;;;;;;24.47;10.67;;;-8.10;99.90;;;;;;5013041;28;20257;-75
2022/12/18 05:05:53;;;;;;;28.30;11.47;;;-8.10;99.90;;;;;;5026390;28;20968;-75
2022/12/18 05:08:20;;;;;;;28.30;11.50;;;-8.10;99.90;;;;;;5024832;28;20302;-74
2022/12/18 05:10:47;;;;;;;21.33;11.47;;;-8.10;99.90;;;;;;5018478;28;20220;-74
2022/12/18 05:13:14;;;;;;;15.90;11.03;;;-8.10;99.90;;;;;;5026677;28;20715;-74
2022/12/18 05:15:41;;;;;;;26.33;11.57;;;-8.10;99.90;;;;;;5026576;28;20310;-75
2022/12/18 05:18:09;;;;;;;23.83;11.27;;;-8.00;99.90;;;;;;5017212;28;20327;-75
2022/12/18 05:20:37;;;;;;;19.63;11.53;;;-8.00;99.90;;;;;;5021782;28;20226;-76
2022/12/18 05:23:04;;;;;;;16.97;11.03;;;-8.00;99.90;;;;;;5016192;28;20637;-77
2022/12/18 05:25:30;;;;;;;22.27;11.80;;;-8.00;99.90;;;;;;5014490;28;20245;-75
2022/12/18 05:27:57;;;;;;;18.00;10.87;;;-8.00;99.90;;;;;;5035115;28;20299;-75
2022/12/18 05:30:23;;;;;;;23.90;12.03;;;-8.00;99.90;;;;;;5025079;28;20318;-75
2022/12/18 05:32:50;;;;;;;22.93;11.83;;;-8.00;99.90;;;;;;5038027;28;20213;-75
2022/12/18 05:35:17;;;;;;;21.10;12.00;;;-8.00;99.90;;;;;;5024056;28;20230;-75
2022/12/18 05:37:45;;;;;;;21.77;12.13;;;-8.00;99.90;;;;;;5030960;28;20220;-75
2022/12/18 05:40:13;;;;;;;20.67;12.10;;;-7.90;99.90;;;;;;5027589;28;20263;-75
2022/12/18 05:42:40;;;;;;;19.83;12.13;;;-7.90;99.90;;;;;;5015276;28;20229;-75
2022/12/18 05:45:07;;;;;;;22.07;12.00;;;-8.00;99.90;;;;;;5014749;28;20238;-75
2022/12/18 05:47:35;;;;;;;19.17;12.40;;;-7.90;99.90;;;;;;5038041;28;20627;-77
2022/12/18 05:50:02;;;;;;;21.53;12.10;;;-7.90;99.90;;;;;;5036947;28;20244;-75
2022/12/18 05:52:29;;;;;;;20.10;11.73;;;-7.90;99.90;;;;;;5026733;28;20300;-75
2022/12/18 05:54:58;;;;;;;22.33;12.67;;;-7.90;99.90;;;;;;5015053;28;20253;-75
2022/12/18 05:57:26;;;;;;;23.47;12.43;;;-7.90;99.90;;;;;;5017020;28;20231;-75
2022/12/18 05:59:53;;;;;;;21.27;12.53;;;-7.90;99.90;;;;;;5024250;28;20227;-75
2022/12/18 06:02:20;;;;;;;20.53;12.03;;;-7.90;99.90;;;;;;5027736;28;20254;-75
2022/12/18 06:04:47;;;;;;;20.10;12.27;;;-7.90;99.90;;;;;;5021315;28;20331;-75
2022/12/18 06:07:14;;;;;;;18.47;11.70;;;-7.90;99.90;;;;;;5020071;28;20224;-75
2022/12/18 06:09:41;;;;;;;18.77;12.00;;;-8.00;99.90;;;;;;5018800;28;20252;-75
2022/12/18 06:12:09;;;;;;;19.93;12.37;;;-8.00;99.90;;;;;;5014485;28;20228;-76
2022/12/18 06:14:35;;;;;;;22.23;12.20;;;-8.00;99.90;;;;;;5029901;28;20229;-73
2022/12/18 06:17:02;;;;;;;19.67;11.80;;;-8.10;99.90;;;;;;5023413;28;20226;-74
2022/12/18 06:19:29;;;;;;;25.73;13.07;;;-8.10;99.90;;;;;;5038264;28;20236;-74
2022/12/18 06:21:57;;;;;;;21.13;13.43;;;-8.10;99.90;;;;;;5027861;28;20222;-74
2022/12/18 06:24:24;;;;;;;19.43;13.03;;;-8.10;99.90;;;;;;5017306;28;20318;-74
2022/12/18 06:26:51;;;;;;;21.13;12.53;;;-8.10;99.90;;;;;;5033456;28;20216;-74
2022/12/18 06:29:19;;;;;;;19.93;11.93;;;-8.10;99.90;;;;;;5017959;28;20753;-76
2022/12/18 06:31:46;;;;;;;24.73;16.27;;;-8.10;99.90;;;;;;5018926;28;20736;-75
2022/12/18 06:34:13;;;;;;;22.80;16.67;;;-8.20;99.90;;;;;;5016725;28;20253;-73
2022/12/18 06:36:40;;;;;;;18.70;12.37;;;-8.20;99.90;;;;;;5023509;28;20393;-74
2022/12/18 06:39:06;;;;;;;19.23;12.23;;;-8.20;99.90;;;;;;5029153;28;20230;-75
2022/12/18 06:41:33;;;;;;;21.67;12.13;;;-8.20;99.90;;;;;;5011639;28;20647;-74
2022/12/18 06:44:00;;;;;;;20.90;11.93;;;-8.20;99.90;;;;;;5029549;28;20247;-75
2022/12/18 06:46:28;;;;;;;22.77;13.07;;;-8.20;99.90;;;;;;5027305;28;20630;-75
2022/12/18 06:48:54;;;;;;;18.80;11.67;;;-8.20;99.90;;;;;;5025170;28;20261;-74
2022/12/18 06:51:22;;;;;;;22.63;12.17;;;-8.30;99.90;;;;;;5026919;28;20641;-74
2022/12/18 06:53:49;;;;;;;20.17;12.70;;;-8.20;99.90;;;;;;5014841;28;20241;-75
2022/12/18 06:56:16;;;;;;;24.17;11.93;;;-8.20;99.90;;;;;;5026791;28;20997;-74
2022/12/18 06:58:43;;;;;;;22.33;12.80;;;-8.30;99.90;;;;;;5022238;28;20219;-75
2022/12/18 07:01:11;;;;;;;23.33;12.67;;;-8.30;99.90;;;;;;5026362;28;20314;-75
2022/12/18 07:03:41;;;;;;;22.63;11.73;;;-8.30;99.90;;;;;;5015381;28;20227;-74
2022/12/18 07:06:15;;;;;;;22.03;12.97;;;-8.30;99.90;;;;;;5035971;28;20898;-75
2022/12/18 07:08:42;;;;;;;23.50;13.30;;;-8.20;99.90;;;;;;5032258;28;20253;-74
2022/12/18 07:11:09;;;;;;;21.37;11.70;;;-8.20;99.90;;;;;;5038158;28;20226;-74
2022/12/18 07:13:35;;;;;;;20.17;12.30;;;-8.20;99.90;;;;;;5025764;28;20231;-74
2022/12/18 07:16:05;;;;;;;21.77;12.67;;;-8.20;99.90;;;;;;5024269;28;20226;-74
2022/12/18 07:18:32;;;;;;;22.90;12.57;;;-8.20;99.90;;;;;;5019627;28;20240;-74
2022/12/18 07:21:04;;;;;;;20.40;11.77;;;-8.10;99.90;;;;;;5032466;28;20263;-75
2022/12/18 07:23:31;;;;;;;19.67;11.67;;;-8.10;99.90;;;;;;5036343;28;22303;-76
2022/12/18 07:26:05;;;;;;;21.87;11.10;;;-8.10;99.90;;;;;;5023205;28;20259;-76
2022/12/18 07:28:32;;;;;;;21.73;11.90;;;-8.10;99.90;;;;;;5025398;28;20229;-75
2022/12/18 07:30:59;;;;;;;22.83;11.63;;;-8.10;99.90;;;;;;5027671;28;20285;-75
2022/12/18 07:33:26;;;;;;;58.40;15.93;;;-8.10;99.90;;;;;;5026159;28;20587;-76
2022/12/18 07:35:53;;;;;;;18.93;12.27;;;-8.10;99.90;;;;;;5019944;28;20228;-77
2022/12/18 07:38:21;;;;;;;18.27;11.77;;;-8.10;99.90;;;;;;5031641;28;20602;-75
2022/12/18 07:40:48;;;;;;;38.10;12.70;;;-8.10;99.90;;;;;;5016034;28;20231;-75
2022/12/18 07:43:14;;;;;;;23.00;12.20;;;-8.00;99.90;;;;;;5018434;28;20225;-75
2022/12/18 07:45:42;;;;;;;172.00;22.17;;;-8.00;99.90;;;;;;5026797;28;20229;-79
2022/12/18 07:48:09;;;;;;;20.53;12.57;;;-8.00;99.90;;;;;;5014925;28;20636;-80
2022/12/18 07:50:36;;;;;;;23.17;12.60;;;-8.00;99.90;;;;;;5029818;28;21203;-74
2022/12/18 07:53:04;;;;;;;24.20;12.17;;;-8.00;99.90;;;;;;5036906;28;20215;-75
2022/12/18 07:55:32;;;;;;;21.20;12.07;;;-8.00;99.90;;;;;;5020649;28;20313;-74
2022/12/18 07:58:02;;;;;;;18.90;12.20;;;-8.00;99.90;;;;;;5016014;28;20242;-73
2022/12/18 08:00:28;;;;;;;29.77;12.83;;;-8.00;99.90;;;;;;5031593;28;20252;-75
2022/12/18 08:02:55;;;;;;;21.47;11.53;;;-7.90;99.90;;;;;;5018931;28;20233;-74
2022/12/18 08:05:22;;;;;;;20.33;11.60;;;-7.90;99.90;;;;;;5036925;28;20774;-79
2022/12/18 08:07:49;;;;;;;23.33;12.80;;;-7.90;99.90;;;;;;5036112;28;20281;-79
2022/12/18 08:10:16;;;;;;;20.07;11.43;;;-7.90;99.90;;;;;;5017761;28;20318;-78
2022/12/18 08:12:44;;;;;;;21.77;11.43;;;-7.80;99.90;;;;;;5035090;28;20225;-73
2022/12/18 08:15:12;;;;;;;19.77;12.17;;;-7.90;99.90;;;;;;5017454;28;21808;-74
2022/12/18 08:17:39;;;;;;;21.93;12.00;;;-7.80;99.90;;;;;;5018137;28;20322;-74
2022/12/18 08:20:07;;;;;;;19.80;11.40;;;-7.80;99.90;;;;;;5021897;28;20238;-75
2022/12/18 08:22:37;;;;;;;22.10;11.83;;;-7.70;99.90;;;;;;5022167;28;20244;-74
2022/12/18 08:25:05;;;;;;;19.23;11.17;;;-7.60;99.90;;;;;;5035938;28;20218;-76
2022/12/18 08:27:31;;;;;;;17.83;11.17;;;-7.40;99.90;;;;;;5022130;28;20231;-74
2022/12/18 08:29:59;;;;;;;22.20;12.07;;;-7.10;99.90;;;;;;5025342;28;20239;-75
2022/12/18 08:32:27;;;;;;;17.33;11.00;;;-6.80;99.90;;;;;;5020455;28;20230;-74
2022/12/18 08:34:56;;;;;;;17.87;10.63;;;-6.50;99.90;;;;;;5026082;28;20696;-75
2022/12/18 08:37:23;;;;;;;18.63;11.13;;;-6.10;99.90;;;;;;5035736;28;20228;-75
2022/12/18 08:39:49;;;;;;;17.13;10.80;;;-5.80;99.90;;;;;;5033410;28;20226;-74
2022/12/18 08:45:05;;;;;;;15.73;10.17;;;-5.20;99.90;;;;;;5022174;28;20212;-74
2022/12/18 08:47:31;;;;;;;16.87;10.53;;;-4.80;99.90;;;;;;5012601;28;20386;-74
2022/12/18 08:49:58;;;;;;;17.90;11.00;;;-4.60;99.90;;;;;;5016064;28;20840;-74
2022/12/18 08:52:24;;;;;;;23.03;10.37;;;-4.30;99.90;;;;;;5011620;28;20228;-75
2022/12/18 08:54:51;;;;;;;15.40;9.73;;;-4.10;99.90;;;;;;5011777;28;20711;-75
2022/12/18 08:57:18;;;;;;;18.83;10.37;;;-3.90;99.90;;;;;;5026974;28;20216;-75
2022/12/18 08:59:44;;;;;;;23.73;13.33;;;-3.70;99.90;;;;;;5029737;28;20223;-75
2022/12/18 09:02:12;;;;;;;15.60;11.27;;;-3.60;99.90;;;;;;5017843;28;20219;-74
2022/12/18 09:04:39;;;;;;;18.90;11.10;;;-3.40;99.90;;;;;;5025181;28;20248;-75
2022/12/18 09:07:06;;;;;;;17.00;9.93;;;-3.30;99.90;;;;;;5022102;28;20228;-75
2022/12/18 09:09:33;;;;;;;15.43;9.37;;;-3.20;99.90;;;;;;5031121;28;20234;-75
2022/12/18 09:12:00;;;;;;;14.67;9.40;;;-3.10;99.90;;;;;;5026295;28;20747;-75
2022/12/18 09:14:26;;;;;;;17.27;10.20;;;-3.00;99.90;;;;;;5033367;28;20221;-75
2022/12/18 09:16:53;;;;;;;17.10;11.33;;;-2.90;99.90;;;;;;5029418;28;20232;-75
2022/12/18 09:19:23;;;;;;;18.20;12.17;;;-2.80;99.90;;;;;;5033347;28;20711;-74
2022/12/18 09:21:49;;;;;;;17.13;11.53;;;-2.60;99.90;;;;;;5033441;28;20225;-75
2022/12/18 09:24:18;;;;;;;14.57;11.77;;;-2.50;99.90;;;;;;5028821;28;20223;-75
2022/12/18 09:26:45;;;;;;;16.57;9.63;;;-2.30;99.90;;;;;;5031386;28;20219;-75
2022/12/18 09:29:11;;;;;;;15.60;9.37;;;-2.10;99.90;;;;;;5034077;28;20218;-75
2022/12/18 09:31:39;;;;;;;15.63;9.17;;;-2.00;99.90;;;;;;5045745;28;20215;-75
2022/12/18 09:34:05;;;;;;;13.50;8.90;;;-1.90;99.90;;;;;;5023844;28;20598;-75
2022/12/18 09:36:34;;;;;;;15.87;8.97;;;-1.80;99.90;;;;;;5021914;28;20947;-74
2022/12/18 09:39:00;;;;;;;13.60;9.20;;;-1.80;99.90;;;;;;5028878;28;20938;-74
2022/12/18 09:41:40;;;;;;;15.83;9.57;;;-1.70;99.90;;;;;;5037099;28;20229;-75
2022/12/18 09:44:15;;;;;;;15.10;8.80;;;-1.60;99.90;;;;;;5035099;28;20900;-75
2022/12/18 09:46:47;;;;;;;15.40;9.90;;;-1.50;99.90;;;;;;5032268;28;20231;-74
2022/12/18 09:49:18;;;;;;;16.20;9.83;;;-1.40;99.90;;;;;;5018407;28;20233;-75
2022/12/18 09:51:51;;;;;;;13.07;9.40;;;-1.30;99.90;;;;;;5008704;28;20231;-74
2022/12/18 09:54:22;;;;;;;14.20;9.10;;;-1.10;99.90;;;;;;5012306;28;20217;-75
2022/12/18 09:56:49;;;;;;;13.27;9.30;;;-1.10;99.90;;;;;;5019358;28;20223;-74
2022/12/18 09:59:24;;;;;;;12.57;8.90;;;-0.90;99.90;;;;;;5023252;28;20229;-74
2022/12/18 10:01:50;;;;;;;14.50;9.40;;;-0.90;99.90;;;;;;5026007;28;20936;-75
2022/12/18 10:04:19;;;;;;;16.37;9.87;;;-0.80;99.10;;;;;;5024681;28;20230;-74
2022/12/18 10:06:55;;;;;;;14.03;8.97;;;-0.80;98.00;;;;;;5025981;28;20234;-75
2022/12/18 10:09:30;;;;;;;14.83;9.03;;;-0.70;99.00;;;;;;5021613;28;20919;-75
2022/12/18 10:12:06;;;;;;;14.27;8.97;;;-0.70;98.80;;;;;;5028417;23;20253;-76
2022/12/18 10:14:42;;;;;;;16.63;9.73;;;-0.80;98.90;;;;;;5019980;28;20277;-77
2022/12/18 10:17:18;;;;;;;15.20;9.47;;;-0.90;98.90;;;;;;5032726;28;20221;-77
2022/12/18 10:19:52;;;;;;;15.97;9.67;;;-1.00;98.70;;;;;;5027642;28;20232;-76
2022/12/18 10:22:42;;;;;;;13.23;8.77;;;-1.00;98.70;;;;;;5014162;28;20259;-77
2022/12/18 10:25:21;;;;;;;15.33;8.80;;;-1.30;98.90;;;;;;5015067;28;20223;-77
2022/12/18 10:27:48;;;;;;;13.90;9.43;;;-1.40;98.50;;;;;;5018322;28;20225;-77
2022/12/18 10:30:21;;;;;;;15.33;10.33;;;-1.50;99.70;;;;;;5014859;28;20223;-76
2022/12/18 10:32:48;;;;;;;17.03;9.50;;;-1.60;98.20;;;;;;5015400;28;20227;-77
2022/12/18 10:35:20;;;;;;;15.10;9.20;;;-1.70;98.70;;;;;;5021779;28;20220;-76
2022/12/18 10:38:23;;;;;;;14.73;9.50;;;-1.80;98.90;;;;;;5021921;28;20605;-76
2022/12/18 10:40:52;;;;;;;16.37;9.87;;;-1.90;98.80;;;;;;5019941;28;20219;-76
2022/12/18 10:43:25;;;;;;;14.30;9.47;;;-2.00;99.30;;;;;;5021204;28;20392;-76
2022/12/18 10:46:15;;;;;;;15.03;10.10;;;-2.10;98.50;;;;;;5017510;28;20221;-76
2022/12/18 10:48:50;;;;;;;16.50;10.00;;;-2.20;99.60;;;;;;5036119;28;20684;-76
2022/12/18 10:51:22;;;;;;;18.77;10.60;;;-2.30;99.70;;;;;;5016443;28;20221;-76
2022/12/18 10:53:56;;;;;;;70.37;41.27;;;-2.40;99.10;;;;;;5024590;28;20281;-76
2022/12/18 10:56:24;;;;;;;20.73;11.07;;;-2.50;99.90;;;;;;5019265;28;20212;-76
2022/12/18 10:58:58;;;;;;;20.13;11.67;;;-2.50;99.90;;;;;;5024642;28;20733;-76
2022/12/18 11:01:25;;;;;;;18.30;10.60;;;-2.60;99.70;;;;;;5024854;28;20244;-76
2022/12/18 11:04:01;;;;;;;13.87;9.67;;;-2.60;99.90;;;;;;5018274;28;20225;-76
2022/12/18 11:06:29;;;;;;;15.63;9.27;;;-2.70;99.90;;;;;;5022820;28;20229;-76
2022/12/18 11:09:02;;;;;;;18.53;10.57;;;-2.70;99.90;;;;;;5023915;28;20227;-76
2022/12/18 11:11:29;;;;;;;17.23;10.03;;;-2.70;99.90;;;;;;5019591;28;20234;-76
2022/12/18 11:14:03;;;;;;;14.57;9.90;;;-2.70;99.90;;;;;;5020323;28;20645;-76
2022/12/18 11:16:33;;;;;;;16.40;10.33;;;-2.60;99.90;;;;;;5017545;28;20222;-76
2022/12/18 11:19:20;;;;;;;16.57;10.10;;;-2.60;99.90;;;;;;5017785;28;20231;-76
2022/12/18 11:21:47;;;;;;;17.00;10.30;;;-2.60;99.90;;;;;;5020955;28;20227;-76
2022/12/18 11:24:21;;;;;;;14.87;9.17;;;-2.60;99.90;;;;;;5020256;28;20222;-76
2022/12/18 11:26:49;;;;;;;17.07;10.20;;;-2.60;99.90;;;;;;5021141;28;20218;-76
2022/12/18 11:29:19;;;;;;;14.37;9.13;;;-2.60;99.90;;;;;;5018094;28;20252;-76
2022/12/18 11:31:46;;;;;;;15.77;9.90;;;-2.60;99.90;;;;;;5020931;28;20896;-76
2022/12/18 11:34:17;;;;;;;16.67;9.53;;;-2.60;99.90;;;;;;5023208;28;20235;-76
2022/12/18 11:36:47;;;;;;;16.30;9.47;;;-2.60;99.90;;;;;;5024335;28;20279;-76
2022/12/18 11:39:20;;;;;;;16.77;9.90;;;-2.70;99.90;;;;;;5014363;28;20218;-76
2022/12/18 11:42:11;;;;;;;17.77;10.30;;;-2.80;99.90;;;;;;5015361;28;20239;-76
2022/12/18 11:44:44;;;;;;;16.47;9.00;;;-2.80;99.90;;;;;;5020137;28;20254;-76
2022/12/18 11:47:20;;;;;;;14.57;9.53;;;-2.90;99.90;;;;;;5019140;28;20877;-76
2022/12/18 11:49:50;;;;;;;18.77;10.20;;;-2.90;99.90;;;;;;5020806;28;20221;-76
2022/12/18 11:52:20;;;;;;;16.73;10.43;;;-2.90;99.90;;;;;;5014814;28;20227;-76
2022/12/18 11:54:56;;;;;;;17.90;9.90;;;-3.00;99.90;;;;;;5022742;28;20225;-76
2022/12/18 11:57:34;;;;;;;18.17;10.97;;;-3.00;99.90;;;;;;5022693;28;20230;-76
2022/12/18 12:00:05;;;;;;;20.27;10.70;;;-2.90;99.90;;;;;;5021271;28;20225;-77
2022/12/18 12:03:08;;;;;;;18.40;10.40;;;-2.90;99.90;;;;;;5023168;28;20225;-76
2022/12/18 12:05:49;;;;;;;17.53;10.37;;;-2.90;99.90;;;;;;5022623;28;20229;-76
2022/12/18 12:08:25;;;;;;;15.47;10.67;;;-2.90;99.90;;;;;;5023251;28;20236;-76
2022/12/18 12:11:02;;;;;;;17.27;10.90;;;-2.80;99.90;;;;;;5019460;28;20252;-76
2022/12/18 12:13:42;;;;;;;20.03;10.87;;;-2.90;99.90;;;;;;5023316;28;20233;-76
2022/12/18 12:16:16;;;;;;;22.47;12.67;;;-2.80;99.90;;;;;;5011909;28;20226;-76
2022/12/18 12:18:55;;;;;;;18.73;11.43;;;-2.80;99.90;;;;;;5022675;28;20345;-76
2022/12/18 12:21:29;;;;;;;20.57;11.83;;;-2.80;99.90;;;;;;5022898;28;20470;-76
2022/12/18 12:24:09;;;;;;;126.13;74.77;;;-2.80;99.90;;;;;;5023370;28;20232;-76
2022/12/18 12:26:46;;;;;;;20.60;12.00;;;-2.80;99.90;;;;;;5017872;28;20217;-76
2022/12/18 12:29:27;;;;;;;56.90;43.93;;;-2.80;99.90;;;;;;5021404;28;20775;-77
2022/12/18 12:32:20;;;;;;;39.37;27.47;;;-2.80;99.90;;;;;;5020353;28;20238;-76
2022/12/18 12:34:58;;;;;;;24.23;15.93;;;-2.80;99.90;;;;;;5019738;28;20230;-76
2022/12/18 12:37:37;;;;;;;32.33;22.53;;;-2.80;99.90;;;;;;5023496;28;20611;-76
2022/12/18 12:40:05;;;;;;;20.93;12.17;;;-2.80;99.90;;;;;;5022348;28;20692;-76
2022/12/18 12:45:30;;;;;;;22.83;13.33;;;-2.80;99.90;;;;;;5017797;28;20240;-76
2022/12/18 12:47:58;;;;;;;20.07;11.70;;;-2.80;99.90;;;;;;5024004;28;20229;-76
2022/12/18 12:50:26;;;;;;;23.53;14.90;;;-2.90;99.90;;;;;;5017717;28;20746;-75
2022/12/18 12:52:55;;;;;;;20.27;11.83;;;-2.90;99.90;;;;;;5021913;28;20619;-75